createdAt,value
2024-02-14T00:00:50.311Z,8.76
2024-02-14T00:03:17.241Z,8.98
2024-02-14T00:05:43.749Z,9.14
2024-02-14T00:08:10.652Z,7.95
2024-02-14T00:10:37.277Z,7.99
2024-02-14T00:13:03.964Z,8.98
2024-02-14T00:15:30.426Z,8.83
2024-02-14T00:17:56.987Z,8.16
2024-02-14T00:20:23.460Z,8.51
2024-02-14T00:22:49.834Z,8.16
2024-02-14T00:25:19.560Z,8.56
2024-02-14T00:27:47.235Z,8.53
2024-02-14T00:30:13.794Z,8.30
2024-02-14T00:32:40.927Z,7.54
2024-02-14T00:35:07.716Z,7.53
2024-02-14T00:37:34.661Z,7.85
2024-02-14T00:40:01.122Z,6.74
2024-02-14T00:42:27.933Z,6.71
2024-02-14T00:44:54.365Z,7.75
2024-02-14T00:47:20.776Z,8.28
2024-02-14T00:49:47.410Z,7.67
2024-02-14T00:52:13.842Z,7.89
2024-02-14T00:54:40.179Z,7.73
2024-02-14T00:57:06.564Z,7.26
2024-02-14T00:59:33.080Z,8.06
2024-02-14T01:02:00.325Z,8.66
2024-02-14T01:04:26.672Z,8.46
2024-02-14T01:06:53.118Z,8.03
2024-02-14T01:09:19.728Z,8.08
2024-02-14T01:11:46.192Z,8.77
2024-02-14T01:14:15.220Z,9.18
2024-02-14T01:16:44.971Z,9.22
2024-02-14T01:19:11.619Z,9.30
2024-02-14T01:21:38.377Z,8.73
2024-02-14T01:24:06.397Z,8.58
2024-02-14T01:26:33.395Z,9.14
2024-02-14T01:29:02.112Z,8.18
2024-02-14T01:31:28.536Z,8.97
2024-02-14T01:33:55.176Z,8.99
2024-02-14T01:36:22.431Z,9.37
2024-02-14T01:38:48.808Z,9.45
2024-02-14T01:41:15.155Z,7.77
2024-02-14T01:43:41.493Z,7.22
2024-02-14T01:46:07.943Z,8.52
2024-02-14T01:48:35.138Z,8.37
2024-02-14T01:51:01.874Z,7.92
2024-02-14T01:53:31.068Z,7.62
2024-02-14T01:56:00.460Z,7.88
2024-02-14T01:58:27.085Z,7.37
2024-02-14T02:00:59.696Z,7.18
2024-02-14T02:03:27.181Z,7.03
2024-02-14T02:05:54.987Z,7.11
2024-02-14T02:08:21.737Z,7.71
2024-02-14T02:10:48.121Z,8.83
2024-02-14T02:13:16.763Z,9.06
2024-02-14T02:15:45.901Z,9.25
2024-02-14T02:18:12.743Z,9.55
2024-02-14T02:20:39.444Z,8.99
2024-02-14T02:23:06.272Z,8.11
2024-02-14T02:25:32.741Z,8.75
2024-02-14T02:27:59.588Z,8.99
2024-02-14T02:30:26.496Z,9.11
2024-02-14T02:32:52.979Z,9.50
2024-02-14T02:35:22.279Z,9.38
2024-02-14T02:37:51.965Z,9.00
2024-02-14T02:40:18.507Z,9.20
2024-02-14T02:42:46.322Z,8.73
2024-02-14T02:45:12.709Z,8.87
2024-02-14T02:47:39.220Z,9.21
2024-02-14T02:50:05.848Z,8.78
2024-02-14T02:52:32.229Z,8.78
2024-02-14T02:54:58.696Z,9.22
2024-02-14T02:57:27.742Z,9.22
2024-02-14T02:59:55.339Z,8.45
2024-02-14T03:02:21.750Z,7.71
2024-02-14T03:04:52.547Z,8.37
2024-02-14T03:07:20.531Z,8.93
2024-02-14T03:09:47.378Z,8.36
2024-02-14T03:12:17.294Z,8.29
2024-02-14T03:14:45.113Z,8.60
2024-02-14T03:17:11.626Z,8.61
2024-02-14T03:19:40.055Z,7.65
2024-02-14T03:22:10.429Z,8.68
2024-02-14T03:24:38.120Z,8.78
2024-02-14T03:27:05.738Z,8.76
2024-02-14T03:29:32.320Z,9.01
2024-02-14T03:32:00.656Z,8.86
2024-02-14T03:34:27.508Z,8.44
2024-02-14T03:36:53.949Z,7.91
2024-02-14T03:39:20.428Z,7.83
2024-02-14T03:41:46.854Z,7.73
2024-02-14T03:44:14.278Z,7.04
2024-02-14T03:46:40.709Z,7.03
2024-02-14T03:49:07.281Z,6.57
2024-02-14T03:51:34.784Z,6.68
2024-02-14T03:54:01.333Z,7.51
2024-02-14T03:56:27.833Z,8.18
2024-02-14T03:58:54.253Z,7.58
2024-02-14T04:01:20.899Z,7.22
2024-02-14T04:03:48.291Z,7.90
2024-02-14T04:06:14.840Z,7.56
2024-02-14T04:08:41.348Z,8.01
2024-02-14T04:11:07.862Z,7.21
2024-02-14T04:13:34.225Z,6.39
2024-02-14T04:16:00.577Z,5.99
2024-02-14T04:18:27.038Z,6.98
2024-02-14T04:20:53.550Z,7.49
2024-02-14T04:23:20.664Z,7.36
2024-02-14T04:25:47.049Z,8.24
2024-02-14T04:28:13.872Z,8.59
2024-02-14T04:30:40.244Z,7.79
2024-02-14T04:33:10.411Z,7.63
2024-02-14T04:35:39.109Z,7.88
2024-02-14T04:38:05.487Z,8.18
2024-02-14T04:40:31.833Z,8.41
2024-02-14T04:42:58.192Z,8.23
2024-02-14T04:45:24.544Z,7.75
2024-02-14T04:47:51.017Z,7.84
2024-02-14T04:50:17.559Z,8.08
2024-02-14T04:52:43.904Z,7.93
2024-02-14T04:55:10.304Z,8.18
2024-02-14T04:57:38.012Z,8.35
2024-02-14T05:00:06.338Z,7.94
2024-02-14T05:02:32.986Z,7.68
2024-02-14T05:04:59.648Z,7.21
2024-02-14T05:07:26.096Z,6.03
2024-02-14T05:09:53.569Z,5.44
2024-02-14T05:12:20.758Z,5.42
2024-02-14T05:14:47.255Z,6.02
2024-02-14T05:17:13.668Z,6.00
2024-02-14T05:19:40.619Z,5.59
2024-02-14T05:22:07.008Z,5.45
2024-02-14T05:24:33.341Z,5.27
2024-02-14T05:26:59.740Z,5.13
2024-02-14T05:29:26.215Z,5.41
2024-02-14T05:31:56.276Z,5.84
2024-02-14T05:34:22.768Z,5.91
2024-02-14T05:36:49.246Z,6.23
2024-02-14T05:39:16.680Z,6.86
2024-02-14T05:41:43.073Z,7.77
2024-02-14T05:44:09.442Z,7.96
2024-02-14T05:46:35.855Z,7.98
2024-02-14T05:49:02.376Z,7.44
2024-02-14T05:51:28.857Z,7.66
2024-02-14T05:53:55.322Z,7.33
2024-02-14T05:56:21.757Z,6.65
2024-02-14T05:58:48.095Z,6.65
2024-02-14T06:01:14.501Z,7.43
2024-02-14T06:03:42.368Z,7.83
2024-02-14T06:06:08.872Z,7.97
2024-02-14T06:08:35.333Z,7.84
2024-02-14T06:11:02.064Z,8.16
2024-02-14T06:13:28.426Z,8.04
2024-02-14T06:15:54.787Z,6.65
2024-02-14T06:18:21.344Z,5.95
2024-02-14T06:20:48.071Z,5.80
2024-02-14T06:23:14.514Z,6.40
2024-02-14T06:25:40.854Z,7.02
2024-02-14T06:28:07.281Z,7.93
2024-02-14T06:30:34.181Z,6.94
2024-02-14T06:33:02.371Z,7.61
2024-02-14T06:35:29.989Z,7.72
2024-02-14T06:38:03.517Z,7.28
2024-02-14T06:40:31.532Z,7.52
2024-02-14T06:42:59.268Z,8.15
2024-02-14T06:45:25.868Z,8.48
2024-02-14T06:47:52.309Z,8.01
2024-02-14T06:50:18.728Z,8.17
2024-02-14T06:52:45.058Z,8.81
2024-02-14T06:55:11.444Z,8.76
2024-02-14T06:57:37.792Z,8.67
2024-02-14T07:00:07.053Z,8.72
2024-02-14T07:02:33.651Z,9.02
2024-02-14T07:05:00.160Z,9.00
2024-02-14T07:07:26.956Z,8.93
2024-02-14T07:09:54.354Z,8.66
2024-02-14T07:12:20.924Z,8.59
2024-02-14T07:14:47.530Z,8.33
2024-02-14T07:17:13.930Z,7.29
2024-02-14T07:19:43.949Z,8.01
2024-02-14T07:22:10.605Z,8.38
2024-02-14T07:24:37.081Z,8.66
2024-02-14T07:27:03.594Z,8.84
2024-02-14T07:29:30.683Z,9.10
2024-02-14T07:31:59.892Z,9.11
2024-02-14T07:34:26.780Z,9.29
2024-02-14T07:36:53.401Z,8.36
2024-02-14T07:39:19.835Z,8.90
2024-02-14T07:41:46.358Z,7.98
2024-02-14T07:44:13.088Z,7.36
2024-02-14T07:46:39.625Z,7.02
2024-02-14T07:49:07.510Z,6.91
2024-02-14T07:51:37.843Z,6.67
2024-02-14T07:54:07.467Z,6.08
2024-02-14T07:56:34.185Z,6.16
2024-02-14T07:59:01.173Z,6.94
2024-02-14T08:01:27.919Z,7.15
2024-02-14T08:03:54.348Z,8.18
2024-02-14T08:06:20.856Z,8.61
2024-02-14T08:08:47.383Z,9.18
2024-02-14T08:11:13.822Z,9.48
2024-02-14T08:13:40.970Z,9.49
2024-02-14T08:16:07.936Z,9.61
2024-02-14T08:18:34.509Z,9.63
2024-02-14T08:21:01.021Z,9.71
2024-02-14T08:23:27.412Z,9.59
2024-02-14T08:25:53.818Z,9.58
2024-02-14T08:28:21.492Z,9.36
2024-02-14T08:30:48.921Z,9.52
2024-02-14T08:33:15.409Z,9.72
2024-02-14T08:35:43.807Z,9.48
2024-02-14T08:38:10.675Z,9.78
2024-02-14T08:40:37.823Z,10.00
2024-02-14T08:43:05.728Z,9.88
2024-02-14T08:45:32.850Z,9.94
2024-02-14T08:47:59.444Z,10.10
2024-02-14T08:50:25.925Z,10.20
2024-02-14T08:52:52.381Z,10.28
2024-02-14T08:55:19.823Z,10.32
2024-02-14T08:57:48.520Z,10.27
2024-02-14T09:00:20.455Z,10.28
2024-02-14T09:02:48.143Z,10.27
2024-02-14T09:05:14.743Z,10.18
2024-02-14T09:07:42.719Z,10.31
2024-02-14T09:10:09.360Z,10.46
2024-02-14T09:12:35.811Z,10.50
2024-02-14T09:15:03.082Z,10.33
2024-02-14T09:17:29.558Z,10.54
2024-02-14T09:19:57.935Z,10.37
2024-02-14T09:22:24.429Z,9.96
2024-02-14T09:24:53.657Z,9.79
2024-02-14T09:27:20.825Z,9.41
2024-02-14T09:29:47.328Z,10.29
2024-02-14T09:32:14.063Z,10.56
2024-02-14T09:34:40.703Z,10.13
2024-02-14T09:37:07.851Z,10.50
2024-02-14T09:39:37.796Z,10.41
2024-02-14T09:42:08.848Z,10.36
2024-02-14T09:44:35.697Z,10.77
2024-02-14T09:47:02.339Z,10.97
2024-02-14T09:49:28.838Z,11.02
2024-02-14T09:51:55.354Z,10.90
2024-02-14T09:54:21.758Z,9.95
2024-02-14T09:56:54.325Z,8.73
2024-02-14T09:59:21.027Z,10.04
2024-02-14T10:01:49.072Z,9.61
2024-02-14T10:04:15.485Z,10.56
2024-02-14T10:06:41.944Z,10.75
2024-02-14T10:09:08.982Z,10.95
2024-02-14T10:11:36.057Z,10.13
2024-02-14T10:14:04.888Z,9.46
2024-02-14T10:16:31.938Z,9.40
2024-02-14T10:18:58.827Z,9.19
2024-02-14T10:21:26.931Z,8.91
2024-02-14T10:23:54.358Z,9.60
2024-02-14T10:26:20.954Z,10.03
2024-02-14T10:28:50.269Z,9.93
2024-02-14T10:31:17.120Z,10.29
2024-02-14T10:33:43.744Z,10.54
2024-02-14T10:36:10.424Z,10.82
2024-02-14T10:38:37.057Z,10.84
2024-02-14T10:41:03.545Z,10.48
2024-02-14T10:43:30.278Z,10.49
2024-02-14T10:45:57.098Z,11.09
2024-02-14T10:48:27.828Z,11.11
2024-02-14T10:50:54.698Z,11.63
2024-02-14T10:53:21.418Z,11.75
2024-02-14T10:55:48.949Z,12.05
2024-02-14T10:58:15.505Z,12.22
2024-02-14T11:00:42.332Z,12.13
2024-02-14T11:03:08.736Z,12.12
2024-02-14T11:05:46.486Z,12.24
2024-02-14T11:08:22.668Z,12.38
2024-02-14T11:10:56.179Z,12.37
2024-02-14T11:13:22.700Z,12.32
2024-02-14T11:15:49.127Z,12.21
2024-02-14T11:18:15.702Z,12.36
2024-02-14T11:20:47.225Z,12.40
2024-02-14T11:23:13.791Z,12.36
2024-02-14T11:25:40.155Z,12.36
2024-02-14T11:28:25.138Z,12.31
2024-02-14T11:30:51.930Z,12.35
2024-02-14T11:33:22.300Z,12.47
2024-02-14T11:35:53.016Z,12.36
2024-02-14T11:38:23.031Z,12.51
2024-02-14T11:40:50.218Z,12.65
2024-02-14T11:43:18.981Z,12.60
2024-02-14T11:45:46.534Z,12.24
2024-02-14T11:48:13.713Z,12.28
2024-02-14T11:50:40.863Z,12.41
2024-02-14T11:53:11.602Z,12.30
2024-02-14T11:55:38.661Z,12.55
2024-02-14T11:58:09.238Z,12.80
2024-02-14T12:00:36.985Z,12.81
2024-02-14T12:03:03.514Z,12.92
2024-02-14T12:05:29.929Z,12.91
2024-02-14T12:07:56.330Z,12.76
2024-02-14T12:10:22.797Z,12.89
2024-02-14T12:12:49.163Z,12.97
2024-02-14T12:15:16.923Z,12.99
2024-02-14T12:17:43.502Z,13.09
2024-02-14T12:20:11.727Z,13.05
2024-02-14T12:22:38.454Z,13.19
2024-02-14T12:25:06.303Z,13.20
2024-02-14T12:27:33.262Z,13.11
2024-02-14T12:29:59.670Z,13.40
2024-02-14T12:32:26.164Z,13.48
2024-02-14T12:34:52.672Z,13.60
2024-02-14T12:37:19.049Z,13.46
2024-02-14T12:39:45.416Z,13.46
2024-02-14T12:42:11.894Z,13.09
2024-02-14T12:44:39.128Z,13.27
2024-02-14T12:47:05.521Z,13.05
2024-02-14T12:49:32.820Z,13.02
2024-02-14T12:51:59.328Z,13.19
2024-02-14T12:54:25.812Z,13.32
2024-02-14T12:56:53.119Z,13.59
2024-02-14T12:59:19.532Z,13.61
2024-02-14T13:01:46.093Z,12.90
2024-02-14T13:04:13.022Z,13.33
2024-02-14T13:06:39.523Z,13.68
2024-02-14T13:09:09.570Z,13.64
2024-02-14T13:11:36.433Z,13.74
2024-02-14T13:14:02.911Z,13.50
2024-02-14T13:16:29.330Z,13.70
2024-02-14T13:18:55.861Z,13.66
2024-02-14T13:21:22.405Z,13.87
2024-02-14T13:23:48.978Z,14.05
2024-02-14T13:26:15.414Z,13.77
2024-02-14T13:28:41.767Z,13.97
2024-02-14T13:31:08.108Z,13.94
2024-02-14T13:33:34.684Z,13.86
2024-02-14T13:36:01.199Z,13.88
2024-02-14T13:38:27.607Z,13.53
2024-02-14T13:40:54.263Z,13.71
2024-02-14T13:43:20.609Z,13.78
2024-02-14T13:45:48.867Z,13.80
2024-02-14T13:48:15.481Z,13.87
2024-02-14T13:50:43.607Z,13.72
2024-02-14T13:53:10.214Z,13.76
2024-02-14T13:55:36.562Z,13.15
2024-02-14T13:58:02.933Z,13.14
2024-02-14T14:00:29.407Z,13.04
2024-02-14T14:02:56.659Z,13.38
2024-02-14T14:05:23.207Z,12.84
2024-02-14T14:07:57.694Z,13.43
2024-02-14T14:10:29.226Z,13.40
2024-02-14T14:12:56.346Z,13.65
2024-02-14T14:15:27.774Z,13.92
2024-02-14T14:17:54.420Z,13.94
2024-02-14T14:20:21.559Z,14.04
2024-02-14T14:22:48.319Z,14.01
2024-02-14T14:25:14.842Z,13.99
2024-02-14T14:27:41.287Z,14.11
2024-02-14T14:30:08.502Z,14.13
2024-02-14T14:32:35.066Z,14.33
2024-02-14T14:35:01.858Z,14.35
2024-02-14T14:37:28.460Z,13.46
2024-02-14T14:39:56.369Z,13.96
2024-02-14T14:42:22.757Z,13.04
2024-02-14T14:44:49.179Z,13.45
2024-02-14T14:47:15.665Z,13.36
2024-02-14T14:49:42.277Z,13.63
2024-02-14T14:52:08.704Z,14.12
2024-02-14T14:54:35.162Z,13.80
2024-02-14T14:57:05.072Z,13.85
2024-02-14T14:59:31.566Z,14.13
2024-02-14T15:01:58.005Z,14.03
2024-02-14T15:04:24.535Z,13.97
2024-02-14T15:06:53.798Z,14.13
2024-02-14T15:09:21.394Z,13.88
2024-02-14T15:11:48.144Z,14.05
2024-02-14T15:14:14.496Z,14.24
2024-02-14T15:16:40.858Z,14.36
2024-02-14T15:19:08.073Z,14.15
2024-02-14T15:21:34.593Z,14.20
2024-02-14T15:24:01.483Z,14.16
2024-02-14T15:26:27.949Z,14.20
2024-02-14T15:29:14.309Z,14.16
2024-02-14T15:31:59.219Z,14.30
2024-02-14T15:34:25.900Z,14.20
2024-02-14T15:36:52.544Z,14.13
2024-02-14T15:39:18.981Z,14.15
2024-02-14T15:41:45.375Z,14.12
2024-02-14T15:44:11.758Z,14.10
2024-02-14T15:46:38.134Z,14.14
2024-02-14T15:49:04.558Z,14.15
2024-02-14T15:51:31.150Z,14.14
2024-02-14T15:53:57.532Z,14.16
2024-02-14T15:56:25.364Z,14.05
2024-02-14T15:58:52.904Z,14.04
2024-02-14T16:01:19.334Z,14.01
2024-02-14T16:03:46.329Z,13.89
2024-02-14T16:06:12.793Z,14.01
2024-02-14T16:08:39.198Z,13.90
2024-02-14T16:11:05.583Z,13.46
2024-02-14T16:13:31.927Z,13.07
2024-02-14T16:15:58.266Z,13.40
2024-02-14T16:18:26.041Z,13.06
2024-02-14T16:20:52.663Z,13.41
2024-02-14T16:23:19.425Z,13.21
2024-02-14T16:25:48.698Z,12.51
2024-02-14T16:28:15.072Z,12.38
2024-02-14T16:30:41.412Z,12.73
2024-02-14T16:33:08.330Z,13.19
2024-02-14T16:35:35.064Z,12.35
2024-02-14T16:38:01.489Z,12.65
2024-02-14T16:40:30.102Z,13.10
2024-02-14T16:42:58.172Z,13.55
2024-02-14T16:45:24.620Z,13.69
2024-02-14T16:47:51.179Z,13.65
2024-02-14T16:50:17.839Z,13.60
2024-02-14T16:52:44.507Z,13.07
2024-02-14T16:55:10.991Z,13.22
2024-02-14T16:57:37.470Z,12.95
2024-02-14T17:00:05.327Z,12.64
2024-02-14T17:02:31.965Z,12.72
2024-02-14T17:04:58.503Z,12.97
2024-02-14T17:07:24.983Z,12.35
2024-02-14T17:09:51.360Z,13.21
2024-02-14T17:12:18.294Z,13.20
2024-02-14T17:14:45.924Z,13.55
2024-02-14T17:17:13.876Z,12.94
2024-02-14T17:19:40.480Z,11.97
2024-02-14T17:22:16.741Z,11.62
2024-02-14T17:24:48.430Z,11.40
2024-02-14T17:27:16.671Z,11.88
2024-02-14T17:29:43.259Z,12.50
2024-02-14T17:32:17.668Z,12.86
2024-02-14T17:34:50.382Z,13.26
2024-02-14T17:37:16.813Z,12.38
2024-02-14T17:39:43.209Z,12.58
2024-02-14T17:42:09.611Z,13.21
2024-02-14T17:44:36.062Z,11.93
2024-02-14T17:47:02.451Z,12.23
2024-02-14T17:49:29.470Z,13.10
2024-02-14T17:51:55.839Z,12.79
2024-02-14T17:54:24.198Z,12.22
2024-02-14T17:56:50.624Z,12.62
2024-02-14T17:59:17.108Z,12.77
2024-02-14T18:01:43.460Z,13.27
2024-02-14T18:04:10.151Z,13.62
2024-02-14T18:06:37.049Z,13.17
2024-02-14T18:09:03.815Z,12.53
2024-02-14T18:11:30.225Z,12.74
2024-02-14T18:13:56.567Z,13.40
2024-02-14T18:16:22.900Z,13.11
2024-02-14T18:18:49.433Z,12.16
2024-02-14T18:21:15.973Z,13.08
2024-02-14T18:23:42.677Z,12.83
2024-02-14T18:26:11.048Z,12.89
2024-02-14T18:28:37.487Z,13.14
2024-02-14T18:31:04.569Z,12.54
2024-02-14T18:33:33.156Z,13.14
2024-02-14T18:35:59.803Z,12.76
2024-02-14T18:38:32.282Z,12.77
2024-02-14T18:41:00.788Z,12.42
2024-02-14T18:43:28.131Z,12.45
2024-02-14T18:45:55.189Z,12.30
2024-02-14T18:48:22.103Z,11.94
2024-02-14T18:50:48.698Z,12.44
2024-02-14T18:53:15.287Z,12.36
2024-02-14T18:55:41.656Z,12.53
2024-02-14T18:58:07.993Z,12.86
2024-02-14T19:00:35.128Z,13.06
2024-02-14T19:03:03.486Z,12.74
2024-02-14T19:05:29.942Z,12.67
2024-02-14T19:07:57.105Z,12.76
2024-02-14T19:10:24.019Z,12.61
2024-02-14T19:12:50.437Z,12.42
2024-02-14T19:15:16.869Z,12.33
2024-02-14T19:17:43.604Z,11.72
2024-02-14T19:20:10.204Z,11.08
2024-02-14T19:22:36.658Z,10.82
2024-02-14T19:25:03.365Z,10.75
2024-02-14T19:27:29.734Z,10.71
2024-02-14T19:29:56.142Z,10.30
2024-02-14T19:32:22.537Z,9.89
2024-02-14T19:34:48.984Z,10.29
2024-02-14T19:37:15.352Z,10.38
2024-02-14T19:39:41.762Z,10.17
2024-02-14T19:42:08.796Z,10.31
2024-02-14T19:44:35.208Z,10.95
2024-02-14T19:47:01.616Z,10.55
2024-02-14T19:49:28.312Z,11.02
2024-02-14T19:51:55.810Z,11.50
2024-02-14T19:54:22.206Z,11.81
2024-02-14T19:56:49.267Z,11.79
2024-02-14T19:59:15.729Z,11.74
2024-02-14T20:01:42.072Z,11.73
2024-02-14T20:04:10.538Z,10.91
2024-02-14T20:06:36.921Z,11.08
2024-02-14T20:09:04.260Z,10.97
2024-02-14T20:11:30.788Z,9.71
2024-02-14T20:13:57.162Z,9.45
2024-02-14T20:16:23.546Z,10.43
2024-02-14T20:18:50.069Z,11.17
2024-02-14T20:21:16.649Z,10.81
2024-02-14T20:23:43.114Z,10.75
2024-02-14T20:26:09.560Z,10.99
2024-02-14T20:28:36.206Z,11.00
2024-02-14T20:31:02.644Z,10.86
2024-02-14T20:33:29.139Z,10.54
2024-02-14T20:35:55.644Z,11.32
2024-02-14T20:38:23.007Z,11.33
2024-02-14T20:40:51.024Z,11.06
2024-02-14T20:43:17.376Z,11.18
2024-02-14T20:45:43.891Z,10.92
2024-02-14T20:48:10.354Z,11.06
2024-02-14T20:50:37.360Z,11.28
2024-02-14T20:53:04.362Z,11.24
2024-02-14T20:55:33.254Z,10.50
2024-02-14T20:58:00.570Z,11.10
2024-02-14T21:00:27.524Z,10.96
2024-02-14T21:02:54.009Z,9.84
2024-02-14T21:05:20.553Z,9.95
2024-02-14T21:07:47.301Z,10.27
2024-02-14T21:10:15.106Z,9.72
2024-02-14T21:12:42.587Z,9.24
2024-02-14T21:15:09.130Z,9.05
2024-02-14T21:17:35.726Z,9.61
2024-02-14T21:20:02.368Z,10.41
2024-02-14T21:22:28.758Z,10.74
2024-02-14T21:24:55.122Z,10.82
2024-02-14T21:27:21.529Z,10.41
2024-02-14T21:29:47.919Z,10.86
2024-02-14T21:32:15.491Z,11.22
2024-02-14T21:34:42.341Z,11.19
2024-02-14T21:37:08.782Z,11.01
2024-02-14T21:39:35.879Z,10.76
2024-02-14T21:42:02.268Z,10.85
2024-02-14T21:44:30.212Z,11.14
2024-02-14T21:46:56.918Z,11.27
2024-02-14T21:49:24.710Z,11.41
2024-02-14T21:51:52.921Z,10.94
2024-02-14T21:54:19.749Z,10.89
2024-02-14T21:56:46.135Z,10.32
2024-02-14T21:59:13.292Z,9.91
2024-02-14T22:01:39.710Z,10.31
2024-02-14T22:04:06.257Z,10.18
2024-02-14T22:06:32.812Z,10.25
2024-02-14T22:08:59.402Z,10.56
2024-02-14T22:11:26.422Z,10.22
2024-02-14T22:13:52.812Z,9.70
2024-02-14T22:16:19.194Z,9.72
2024-02-14T22:18:45.824Z,10.52
2024-02-14T22:21:12.496Z,11.09
2024-02-14T22:23:39.456Z,11.06
2024-02-14T22:26:06.516Z,10.91
2024-02-14T22:28:35.799Z,10.40
2024-02-14T22:31:03.245Z,10.49
2024-02-14T22:33:29.723Z,9.61
2024-02-14T22:35:56.576Z,9.13
2024-02-14T22:38:23.563Z,9.22
2024-02-14T22:40:49.997Z,9.19
2024-02-14T22:43:16.953Z,9.93
2024-02-14T22:45:43.908Z,9.50
2024-02-14T22:48:10.769Z,9.14
2024-02-14T22:50:37.206Z,9.50
2024-02-14T22:53:04.835Z,9.51
2024-02-14T22:55:31.885Z,9.06
2024-02-14T22:57:58.304Z,9.23
2024-02-14T23:00:25.221Z,10.09
2024-02-14T23:02:51.694Z,10.45
2024-02-14T23:05:21.253Z,10.53
2024-02-14T23:07:50.562Z,10.67
2024-02-14T23:10:17.099Z,10.17
2024-02-14T23:12:43.879Z,10.27
2024-02-14T23:15:11.787Z,9.59
2024-02-14T23:17:38.407Z,9.74
2024-02-14T23:20:07.400Z,9.33
2024-02-14T23:22:34.822Z,9.36
2024-02-14T23:25:02.210Z,9.73
2024-02-14T23:27:28.542Z,10.20
2024-02-14T23:29:56.334Z,9.22
2024-02-14T23:32:22.681Z,8.57
2024-02-14T23:34:49.050Z,9.24
2024-02-14T23:37:15.470Z,9.08
2024-02-14T23:39:41.825Z,9.61
2024-02-14T23:42:09.772Z,9.98
2024-02-14T23:44:37.880Z,10.06
2024-02-14T23:47:04.540Z,10.13
2024-02-14T23:49:30.998Z,10.37
2024-02-14T23:51:57.432Z,9.10
2024-02-14T23:54:23.790Z,9.01
2024-02-14T23:56:50.218Z,8.97
2024-02-14T23:59:16.966Z,8.64
